sensor_id;sensor_type;location;lat;lon;timestamp;pressure;altitude;pressure_sealevel;temperature;humidity
63306;BME280;50735;52.060;1.248;2022-11-15T00:00:54;100165.60;;;10.17;67.24
63306;BME280;50735;52.060;1.248;2022-11-15T00:03:24;100168.74;;;10.31;67.08
63306;BME280;50735;52.060;1.248;2022-11-15T00:05:52;100170.20;;;10.38;66.81
63306;BME280;50735;52.060;1.248;2022-11-15T00:08:18;100170.28;;;10.26;66.67
63306;BME280;50735;52.060;1.248;2022-11-15T00:10:54;100176.29;;;10.21;67.52
63306;BME280;50735;52.060;1.248;2022-11-15T00:13:21;100178.73;;;10.32;67.17
63306;BME280;50735;52.060;1.248;2022-11-15T00:15:47;100175.91;;;9.93;67.40
63306;BME280;50735;52.060;1.248;2022-11-15T00:18:15;100175.88;;;10.13;66.56
63306;BME280;50735;52.060;1.248;2022-11-15T00:20:42;100173.39;;;10.29;66.82
63306;BME280;50735;52.060;1.248;2022-11-15T00:23:09;100173.08;;;10.44;66.22
63306;BME280;50735;52.060;1.248;2022-11-15T00:25:36;100174.16;;;10.17;65.93
63306;BME280;50735;52.060;1.248;2022-11-15T00:28:03;100177.81;;;10.22;65.70
63306;BME280;50735;52.060;1.248;2022-11-15T00:30:29;100178.60;;;10.29;65.69
63306;BME280;50735;52.060;1.248;2022-11-15T00:32:56;100176.06;;;10.55;64.78
63306;BME280;50735;52.060;1.248;2022-11-15T00:35:23;100177.61;;;10.23;64.76
63306;BME280;50735;52.060;1.248;2022-11-15T00:37:50;100175.21;;;10.48;64.85
63306;BME280;50735;52.060;1.248;2022-11-15T00:40:19;100171.50;;;10.44;64.82
63306;BME280;50735;52.060;1.248;2022-11-15T00:42:46;100169.70;;;10.46;64.24
63306;BME280;50735;52.060;1.248;2022-11-15T00:45:12;100166.98;;;10.31;63.76
63306;BME280;50735;52.060;1.248;2022-11-15T00:47:39;100169.10;;;10.10;64.39
63306;BME280;50735;52.060;1.248;2022-11-15T00:50:07;100165.42;;;10.33;63.95
63306;BME280;50735;52.060;1.248;2022-11-15T00:52:34;100164.75;;;10.09;63.71
63306;BME280;50735;52.060;1.248;2022-11-15T00:55:01;100167.45;;;10.10;63.93
63306;BME280;50735;52.060;1.248;2022-11-15T00:57:27;100165.68;;;9.87;64.25
63306;BME280;50735;52.060;1.248;2022-11-15T00:59:54;100166.13;;;9.93;63.84
63306;BME280;50735;52.060;1.248;2022-11-15T01:02:21;100168.94;;;10.24;63.12
63306;BME280;50735;52.060;1.248;2022-11-15T01:04:48;100171.67;;;10.08;63.43
63306;BME280;50735;52.060;1.248;2022-11-15T01:07:15;100171.96;;;10.22;63.22
63306;BME280;50735;52.060;1.248;2022-11-15T01:09:41;100174.84;;;10.10;63.43
63306;BME280;50735;52.060;1.248;2022-11-15T01:12:08;100174.35;;;9.83;63.31
63306;BME280;50735;52.060;1.248;2022-11-15T01:14:35;100173.10;;;9.99;62.53
63306;BME280;50735;52.060;1.248;2022-11-15T01:17:01;100172.53;;;9.79;61.76
63306;BME280;50735;52.060;1.248;2022-11-15T01:19:28;100176.26;;;10.01;60.82
63306;BME280;50735;52.060;1.248;2022-11-15T01:21:55;100177.94;;;9.40;60.73
63306;BME280;50735;52.060;1.248;2022-11-15T01:24:21;100180.73;;;9.39;60.24
63306;BME280;50735;52.060;1.248;2022-11-15T01:26:48;100178.07;;;9.35;60.14
63306;BME280;50735;52.060;1.248;2022-11-15T01:29:14;100165.30;;;9.63;59.88
63306;BME280;50735;52.060;1.248;2022-11-15T01:31:41;100160.82;;;10.14;59.05
63306;BME280;50735;52.060;1.248;2022-11-15T01:34:08;100156.96;;;9.79;59.02
63306;BME280;50735;52.060;1.248;2022-11-15T01:36:34;100148.28;;;9.98;59.02
63306;BME280;50735;52.060;1.248;2022-11-15T01:39:01;100143.66;;;9.64;59.45
63306;BME280;50735;52.060;1.248;2022-11-15T01:41:31;100141.32;;;9.54;59.63
63306;BME280;50735;52.060;1.248;2022-11-15T01:44:41;100135.65;;;9.86;59.23
63306;BME280;50735;52.060;1.248;2022-11-15T01:47:12;100130.76;;;10.07;58.60
63306;BME280;50735;52.060;1.248;2022-11-15T01:49:49;100126.66;;;9.67;58.51
63306;BME280;50735;52.060;1.248;2022-11-15T01:52:19;100123.06;;;9.64;58.59
63306;BME280;50735;52.060;1.248;2022-11-15T01:54:48;100116.07;;;9.71;58.32
63306;BME280;50735;52.060;1.248;2022-11-15T01:57:17;100113.49;;;9.78;58.19
63306;BME280;50735;52.060;1.248;2022-11-15T01:59:45;100109.33;;;9.72;57.86
63306;BME280;50735;52.060;1.248;2022-11-15T02:02:13;100105.99;;;9.57;57.79
63306;BME280;50735;52.060;1.248;2022-11-15T02:04:42;100100.55;;;9.79;57.60
63306;BME280;50735;52.060;1.248;2022-11-15T02:07:12;100097.90;;;9.66;57.08
63306;BME280;50735;52.060;1.248;2022-11-15T02:09:40;100097.52;;;9.78;57.32
63306;BME280;50735;52.060;1.248;2022-11-15T02:12:09;100098.20;;;9.53;56.79
63306;BME280;50735;52.060;1.248;2022-11-15T02:14:37;100101.12;;;9.72;57.13
63306;BME280;50735;52.060;1.248;2022-11-15T02:17:15;100098.23;;;9.30;57.21
63306;BME280;50735;52.060;1.248;2022-11-15T02:20:39;100093.07;;;9.63;56.97
63306;BME280;50735;52.060;1.248;2022-11-15T02:23:26;100088.85;;;9.70;56.70
63306;BME280;50735;52.060;1.248;2022-11-15T02:26:14;100086.36;;;9.86;56.35
63306;BME280;50735;52.060;1.248;2022-11-15T02:28:53;100079.76;;;9.53;56.77
63306;BME280;50735;52.060;1.248;2022-11-15T02:31:28;100079.60;;;9.30;56.90
63306;BME280;50735;52.060;1.248;2022-11-15T02:34:02;100071.88;;;9.45;56.37
63306;BME280;50735;52.060;1.248;2022-11-15T02:36:37;100071.92;;;9.18;57.01
63306;BME280;50735;52.060;1.248;2022-11-15T02:39:10;100069.37;;;8.84;57.22
63306;BME280;50735;52.060;1.248;2022-11-15T02:41:51;100070.86;;;9.41;56.74
63306;BME280;50735;52.060;1.248;2022-11-15T02:44:23;100067.03;;;9.56;56.38
63306;BME280;50735;52.060;1.248;2022-11-15T02:46:55;100064.94;;;9.43;56.30
63306;BME280;50735;52.060;1.248;2022-11-15T02:49:24;100057.58;;;9.35;56.58
63306;BME280;50735;52.060;1.248;2022-11-15T02:51:54;100051.48;;;9.27;56.60
63306;BME280;50735;52.060;1.248;2022-11-15T02:54:23;100046.71;;;9.17;56.58
63306;BME280;50735;52.060;1.248;2022-11-15T02:56:53;100045.18;;;9.33;56.48
63306;BME280;50735;52.060;1.248;2022-11-15T03:00:03;100045.95;;;9.29;56.70
63306;BME280;50735;52.060;1.248;2022-11-15T03:02:41;100045.84;;;8.89;57.55
63306;BME280;50735;52.060;1.248;2022-11-15T03:05:17;100041.51;;;9.18;56.82
63306;BME280;50735;52.060;1.248;2022-11-15T03:07:53;100037.18;;;9.29;56.68
63306;BME280;50735;52.060;1.248;2022-11-15T03:10:25;100034.54;;;9.38;56.27
63306;BME280;50735;52.060;1.248;2022-11-15T03:12:57;100031.29;;;9.03;56.94
63306;BME280;50735;52.060;1.248;2022-11-15T03:15:28;100031.03;;;9.33;56.60
63306;BME280;50735;52.060;1.248;2022-11-15T03:18:00;100025.55;;;8.97;56.73
63306;BME280;50735;52.060;1.248;2022-11-15T03:20:29;100027.95;;;9.33;56.53
63306;BME280;50735;52.060;1.248;2022-11-15T03:23:00;100030.15;;;9.18;56.54
63306;BME280;50735;52.060;1.248;2022-11-15T03:25:29;100025.94;;;9.74;56.31
63306;BME280;50735;52.060;1.248;2022-11-15T03:28:02;100024.27;;;9.55;56.15
63306;BME280;50735;52.060;1.248;2022-11-15T03:30:32;100022.85;;;9.59;56.08
63306;BME280;50735;52.060;1.248;2022-11-15T03:33:00;100018.09;;;9.53;56.31
63306;BME280;50735;52.060;1.248;2022-11-15T03:35:33;100014.47;;;9.32;56.30
63306;BME280;50735;52.060;1.248;2022-11-15T03:38:06;100013.17;;;9.37;56.89
63306;BME280;50735;52.060;1.248;2022-11-15T03:40:38;100012.74;;;9.36;56.95
63306;BME280;50735;52.060;1.248;2022-11-15T03:43:11;100010.21;;;9.30;57.22
63306;BME280;50735;52.060;1.248;2022-11-15T03:45:45;100006.70;;;9.52;56.65
63306;BME280;50735;52.060;1.248;2022-11-15T03:48:19;100009.34;;;9.74;56.30
63306;BME280;50735;52.060;1.248;2022-11-15T03:50:48;100006.32;;;9.80;55.97
63306;BME280;50735;52.060;1.248;2022-11-15T03:53:17;100000.91;;;9.52;56.14
63306;BME280;50735;52.060;1.248;2022-11-15T03:55:44;100000.77;;;9.99;55.95
63306;BME280;50735;52.060;1.248;2022-11-15T03:58:10;99998.46;;;9.65;55.97
63306;BME280;50735;52.060;1.248;2022-11-15T04:00:37;99998.67;;;9.65;56.13
63306;BME280;50735;52.060;1.248;2022-11-15T04:03:03;99998.37;;;9.40;56.82
63306;BME280;50735;52.060;1.248;2022-11-15T04:05:30;99996.60;;;9.50;56.35
63306;BME280;50735;52.060;1.248;2022-11-15T04:07:57;99991.63;;;9.45;56.42
63306;BME280;50735;52.060;1.248;2022-11-15T04:10:23;99988.10;;;9.44;56.53
63306;BME280;50735;52.060;1.248;2022-11-15T04:12:50;99986.23;;;9.27;56.82
63306;BME280;50735;52.060;1.248;2022-11-15T04:15:20;99980.43;;;9.30;56.78
63306;BME280;50735;52.060;1.248;2022-11-15T04:17:49;99981.35;;;8.99;57.02
63306;BME280;50735;52.060;1.248;2022-11-15T04:20:18;99977.57;;;9.24;56.87
63306;BME280;50735;52.060;1.248;2022-11-15T04:22:46;99980.11;;;9.25;56.80
63306;BME280;50735;52.060;1.248;2022-11-15T04:25:12;99977.71;;;8.98;57.61
63306;BME280;50735;52.060;1.248;2022-11-15T04:27:40;99976.07;;;9.05;57.13
63306;BME280;50735;52.060;1.248;2022-11-15T04:30:08;99971.67;;;9.11;57.27
63306;BME280;50735;52.060;1.248;2022-11-15T04:32:35;99966.31;;;9.11;57.15
63306;BME280;50735;52.060;1.248;2022-11-15T04:35:01;99962.23;;;9.03;57.42
63306;BME280;50735;52.060;1.248;2022-11-15T04:37:28;99955.62;;;8.81;57.56
63306;BME280;50735;52.060;1.248;2022-11-15T04:39:54;99951.13;;;9.05;57.50
63306;BME280;50735;52.060;1.248;2022-11-15T04:42:21;99955.63;;;8.70;58.70
63306;BME280;50735;52.060;1.248;2022-11-15T04:44:48;99956.81;;;9.12;58.20
63306;BME280;50735;52.060;1.248;2022-11-15T04:47:14;99950.58;;;9.29;57.92
63306;BME280;50735;52.060;1.248;2022-11-15T04:49:41;99947.77;;;9.00;58.15
63306;BME280;50735;52.060;1.248;2022-11-15T04:52:08;99952.02;;;8.91;58.79
63306;BME280;50735;52.060;1.248;2022-11-15T04:54:34;99947.69;;;8.72;58.90
63306;BME280;50735;52.060;1.248;2022-11-15T04:57:01;99945.33;;;8.64;59.11
63306;BME280;50735;52.060;1.248;2022-11-15T04:59:28;99944.97;;;8.60;59.76
63306;BME280;50735;52.060;1.248;2022-11-15T05:01:54;99937.50;;;8.85;58.57
63306;BME280;50735;52.060;1.248;2022-11-15T05:04:21;99934.71;;;8.81;58.86
63306;BME280;50735;52.060;1.248;2022-11-15T05:06:49;99934.50;;;9.08;58.69
63306;BME280;50735;52.060;1.248;2022-11-15T05:09:16;99933.39;;;8.84;58.99
63306;BME280;50735;52.060;1.248;2022-11-15T05:11:43;99926.90;;;8.34;60.74
63306;BME280;50735;52.060;1.248;2022-11-15T05:14:11;99919.37;;;8.71;60.29
63306;BME280;50735;52.060;1.248;2022-11-15T05:16:38;99924.12;;;8.53;61.13
63306;BME280;50735;52.060;1.248;2022-11-15T05:19:05;99928.53;;;8.65;61.01
63306;BME280;50735;52.060;1.248;2022-11-15T05:21:32;99926.31;;;8.39;61.54
63306;BME280;50735;52.060;1.248;2022-11-15T05:24:00;99919.34;;;8.68;60.74
63306;BME280;50735;52.060;1.248;2022-11-15T05:26:27;99910.35;;;9.12;60.35
63306;BME280;50735;52.060;1.248;2022-11-15T05:28:54;99903.07;;;8.64;61.22
63306;BME280;50735;52.060;1.248;2022-11-15T05:31:23;99905.78;;;8.45;62.18
63306;BME280;50735;52.060;1.248;2022-11-15T05:33:50;99903.19;;;8.63;62.23
63306;BME280;50735;52.060;1.248;2022-11-15T05:36:21;99900.90;;;8.35;62.59
63306;BME280;50735;52.060;1.248;2022-11-15T05:38:51;99895.37;;;8.32;62.99
63306;BME280;50735;52.060;1.248;2022-11-15T05:41:21;99893.29;;;8.54;63.02
63306;BME280;50735;52.060;1.248;2022-11-15T05:43:51;99893.03;;;8.47;62.76
63306;BME280;50735;52.060;1.248;2022-11-15T05:46:18;99886.41;;;8.46;63.43
63306;BME280;50735;52.060;1.248;2022-11-15T05:48:49;99886.50;;;8.19;63.81
63306;BME280;50735;52.060;1.248;2022-11-15T05:51:18;99881.18;;;8.49;63.64
63306;BME280;50735;52.060;1.248;2022-11-15T05:53:46;99878.94;;;8.56;63.65
63306;BME280;50735;52.060;1.248;2022-11-15T05:56:14;99876.00;;;8.53;62.99
63306;BME280;50735;52.060;1.248;2022-11-15T05:58:42;99869.69;;;8.60;63.01
63306;BME280;50735;52.060;1.248;2022-11-15T06:01:09;99869.03;;;8.35;63.75
63306;BME280;50735;52.060;1.248;2022-11-15T06:03:36;99868.33;;;8.51;63.44
63306;BME280;50735;52.060;1.248;2022-11-15T06:06:03;99860.78;;;8.53;63.36
63306;BME280;50735;52.060;1.248;2022-11-15T06:08:30;99861.37;;;8.41;63.83
63306;BME280;50735;52.060;1.248;2022-11-15T06:11:02;99853.26;;;8.19;64.85
63306;BME280;50735;52.060;1.248;2022-11-15T06:13:28;99853.73;;;8.21;64.87
63306;BME280;50735;52.060;1.248;2022-11-15T06:15:55;99850.44;;;8.09;65.36
63306;BME280;50735;52.060;1.248;2022-11-15T06:18:22;99849.25;;;8.41;64.44
63306;BME280;50735;52.060;1.248;2022-11-15T06:20:49;99848.53;;;8.83;63.78
63306;BME280;50735;52.060;1.248;2022-11-15T06:23:16;99843.60;;;8.67;65.09
63306;BME280;50735;52.060;1.248;2022-11-15T06:25:43;99843.14;;;8.29;65.25
63306;BME280;50735;52.060;1.248;2022-11-15T06:28:10;99843.80;;;8.22;65.43
63306;BME280;50735;52.060;1.248;2022-11-15T06:30:36;99839.80;;;8.25;65.21
63306;BME280;50735;52.060;1.248;2022-11-15T06:33:05;99835.77;;;7.92;65.67
63306;BME280;50735;52.060;1.248;2022-11-15T06:35:33;99836.41;;;8.23;65.67
63306;BME280;50735;52.060;1.248;2022-11-15T06:38:03;99824.06;;;8.38;65.23
63306;BME280;50735;52.060;1.248;2022-11-15T06:40:30;99822.53;;;8.15;65.18
63306;BME280;50735;52.060;1.248;2022-11-15T06:43:00;99829.46;;;8.48;64.74
63306;BME280;50735;52.060;1.248;2022-11-15T06:45:27;99822.61;;;8.43;64.41
63306;BME280;50735;52.060;1.248;2022-11-15T06:47:53;99818.85;;;8.61;64.49
63306;BME280;50735;52.060;1.248;2022-11-15T06:50:20;99802.90;;;8.76;63.98
63306;BME280;50735;52.060;1.248;2022-11-15T06:52:47;99807.00;;;8.59;64.04
63306;BME280;50735;52.060;1.248;2022-11-15T06:55:14;99800.05;;;8.69;64.19
63306;BME280;50735;52.060;1.248;2022-11-15T06:57:47;99800.23;;;8.61;64.93
63306;BME280;50735;52.060;1.248;2022-11-15T07:00:15;99802.17;;;8.60;66.18
63306;BME280;50735;52.060;1.248;2022-11-15T07:02:42;99801.52;;;8.30;66.07
63306;BME280;50735;52.060;1.248;2022-11-15T07:05:10;99802.02;;;8.91;66.09
63306;BME280;50735;52.060;1.248;2022-11-15T07:07:37;99802.50;;;8.82;65.30
63306;BME280;50735;52.060;1.248;2022-11-15T07:10:05;99797.43;;;8.89;65.24
63306;BME280;50735;52.060;1.248;2022-11-15T07:12:32;99789.13;;;8.51;66.01
63306;BME280;50735;52.060;1.248;2022-11-15T07:14:59;99785.18;;;8.68;65.50
63306;BME280;50735;52.060;1.248;2022-11-15T07:17:25;99786.27;;;8.42;65.97
63306;BME280;50735;52.060;1.248;2022-11-15T07:19:52;99783.66;;;8.63;65.61
63306;BME280;50735;52.060;1.248;2022-11-15T07:22:18;99787.88;;;9.03;65.76
63306;BME280;50735;52.060;1.248;2022-11-15T07:24:45;99783.32;;;8.49;66.41
63306;BME280;50735;52.060;1.248;2022-11-15T07:27:12;99780.49;;;8.76;66.48
63306;BME280;50735;52.060;1.248;2022-11-15T07:29:38;99784.40;;;8.13;67.71
63306;BME280;50735;52.060;1.248;2022-11-15T07:32:05;99781.39;;;8.22;67.85
63306;BME280;50735;52.060;1.248;2022-11-15T07:34:32;99780.10;;;8.14;67.45
63306;BME280;50735;52.060;1.248;2022-11-15T07:36:59;99776.53;;;8.37;66.97
63306;BME280;50735;52.060;1.248;2022-11-15T07:39:25;99777.13;;;8.28;67.01
63306;BME280;50735;52.060;1.248;2022-11-15T07:41:52;99777.12;;;8.50;66.51
63306;BME280;50735;52.060;1.248;2022-11-15T07:44:19;99773.39;;;8.22;67.40
63306;BME280;50735;52.060;1.248;2022-11-15T07:46:45;99774.97;;;8.50;66.73
63306;BME280;50735;52.060;1.248;2022-11-15T07:49:12;99770.25;;;8.86;66.61
63306;BME280;50735;52.060;1.248;2022-11-15T07:51:39;99763.87;;;8.58;67.45
63306;BME280;50735;52.060;1.248;2022-11-15T07:54:05;99765.06;;;8.44;67.07
63306;BME280;50735;52.060;1.248;2022-11-15T07:56:32;99761.61;;;8.46;67.22
63306;BME280;50735;52.060;1.248;2022-11-15T07:58:58;99763.50;;;8.69;67.19
63306;BME280;50735;52.060;1.248;2022-11-15T08:01:25;99742.99;;;8.17;67.58
63306;BME280;50735;52.060;1.248;2022-11-15T08:03:51;99749.26;;;8.39;67.53
63306;BME280;50735;52.060;1.248;2022-11-15T08:06:18;99745.11;;;8.60;66.91
63306;BME280;50735;52.060;1.248;2022-11-15T08:08:46;99753.42;;;8.62;66.71
63306;BME280;50735;52.060;1.248;2022-11-15T08:11:14;99746.33;;;8.48;66.16
63306;BME280;50735;52.060;1.248;2022-11-15T08:13:40;99755.56;;;8.77;65.79
63306;BME280;50735;52.060;1.248;2022-11-15T08:16:08;99759.96;;;8.40;65.75
63306;BME280;50735;52.060;1.248;2022-11-15T08:18:34;99751.53;;;8.63;66.32
63306;BME280;50735;52.060;1.248;2022-11-15T08:21:01;99752.80;;;8.31;66.99
63306;BME280;50735;52.060;1.248;2022-11-15T08:23:29;99753.63;;;8.12;66.88
63306;BME280;50735;52.060;1.248;2022-11-15T08:26:00;99743.81;;;8.33;66.56
63306;BME280;50735;52.060;1.248;2022-11-15T08:28:27;99742.73;;;8.56;66.32
63306;BME280;50735;52.060;1.248;2022-11-15T08:30:55;99750.03;;;8.18;66.97
63306;BME280;50735;52.060;1.248;2022-11-15T08:33:22;99745.51;;;8.20;65.99
63306;BME280;50735;52.060;1.248;2022-11-15T08:35:49;99745.48;;;8.12;66.39
63306;BME280;50735;52.060;1.248;2022-11-15T08:38:16;99736.05;;;8.12;67.03
63306;BME280;50735;52.060;1.248;2022-11-15T08:40:42;99731.49;;;8.39;66.35
63306;BME280;50735;52.060;1.248;2022-11-15T08:43:09;99714.55;;;8.12;66.45
63306;BME280;50735;52.060;1.248;2022-11-15T08:45:36;99717.63;;;8.64;65.65
63306;BME280;50735;52.060;1.248;2022-11-15T08:48:03;99714.74;;;8.95;64.74
63306;BME280;50735;52.060;1.248;2022-11-15T08:50:30;99713.44;;;8.88;64.88
63306;BME280;50735;52.060;1.248;2022-11-15T08:52:56;99713.12;;;8.36;65.55
63306;BME280;50735;52.060;1.248;2022-11-15T08:55:23;99702.11;;;8.67;65.42
63306;BME280;50735;52.060;1.248;2022-11-15T08:57:50;99709.82;;;8.72;66.45
63306;BME280;50735;52.060;1.248;2022-11-15T09:00:17;99694.00;;;8.32;66.32
63306;BME280;50735;52.060;1.248;2022-11-15T09:02:44;99691.08;;;8.31;66.43
63306;BME280;50735;52.060;1.248;2022-11-15T09:05:10;99696.30;;;8.59;66.03
63306;BME280;50735;52.060;1.248;2022-11-15T09:07:37;99690.66;;;8.15;66.62
63306;BME280;50735;52.060;1.248;2022-11-15T09:10:04;99691.24;;;8.54;65.87
63306;BME280;50735;52.060;1.248;2022-11-15T09:12:31;99697.17;;;8.52;65.90
63306;BME280;50735;52.060;1.248;2022-11-15T09:14:58;99677.18;;;8.30;66.09
63306;BME280;50735;52.060;1.248;2022-11-15T09:17:25;99673.67;;;8.32;65.88
63306;BME280;50735;52.060;1.248;2022-11-15T09:19:52;99683.58;;;8.62;65.79
63306;BME280;50735;52.060;1.248;2022-11-15T09:22:19;99673.89;;;8.42;65.79
63306;BME280;50735;52.060;1.248;2022-11-15T09:24:45;99662.37;;;8.42;65.72
63306;BME280;50735;52.060;1.248;2022-11-15T09:27:13;99664.36;;;8.75;65.35
63306;BME280;50735;52.060;1.248;2022-11-15T09:29:39;99654.66;;;8.39;65.32
63306;BME280;50735;52.060;1.248;2022-11-15T09:32:06;99654.21;;;8.36;65.61
63306;BME280;50735;52.060;1.248;2022-11-15T09:34:32;99668.05;;;8.08;65.71
63306;BME280;50735;52.060;1.248;2022-11-15T09:36:59;99658.55;;;8.31;65.53
63306;BME280;50735;52.060;1.248;2022-11-15T09:39:26;99647.61;;;8.61;65.22
63306;BME280;50735;52.060;1.248;2022-11-15T09:42:02;99639.90;;;8.53;65.32
63306;BME280;50735;52.060;1.248;2022-11-15T09:44:42;99638.15;;;8.68;65.43
63306;BME280;50735;52.060;1.248;2022-11-15T09:48:35;99637.38;;;8.07;66.99
63306;BME280;50735;52.060;1.248;2022-11-15T09:51:12;99643.88;;;8.25;67.98
63306;BME280;50735;52.060;1.248;2022-11-15T09:53:46;99651.96;;;8.03;68.57
63306;BME280;50735;52.060;1.248;2022-11-15T09:56:19;99646.28;;;8.02;69.32
63306;BME280;50735;52.060;1.248;2022-11-15T09:58:52;99630.93;;;8.11;69.78
63306;BME280;50735;52.060;1.248;2022-11-15T10:01:33;99613.50;;;8.30;69.71
63306;BME280;50735;52.060;1.248;2022-11-15T10:04:01;99625.61;;;7.60;70.90
63306;BME280;50735;52.060;1.248;2022-11-15T10:06:28;99628.89;;;7.86;70.87
63306;BME280;50735;52.060;1.248;2022-11-15T10:09:01;99617.70;;;8.14;70.98
63306;BME280;50735;52.060;1.248;2022-11-15T10:11:32;99629.81;;;7.93;70.88
63306;BME280;50735;52.060;1.248;2022-11-15T10:14:02;99617.58;;;7.98;70.75
63306;BME280;50735;52.060;1.248;2022-11-15T10:16:45;99614.86;;;8.23;70.84
63306;BME280;50735;52.060;1.248;2022-11-15T10:19:21;99602.46;;;8.18;70.57
63306;BME280;50735;52.060;1.248;2022-11-15T10:21:58;99606.34;;;7.87;70.61
63306;BME280;50735;52.060;1.248;2022-11-15T10:24:30;99605.93;;;8.28;70.24
63306;BME280;50735;52.060;1.248;2022-11-15T10:26:59;99601.82;;;8.51;70.30
63306;BME280;50735;52.060;1.248;2022-11-15T10:29:26;99592.93;;;7.98;70.55
63306;BME280;50735;52.060;1.248;2022-11-15T10:31:53;99590.09;;;8.29;70.65
63306;BME280;50735;52.060;1.248;2022-11-15T10:34:22;99579.79;;;8.47;70.42
63306;BME280;50735;52.060;1.248;2022-11-15T10:36:54;99573.92;;;7.77;71.32
63306;BME280;50735;52.060;1.248;2022-11-15T10:39:22;99573.41;;;7.75;70.99
63306;BME280;50735;52.060;1.248;2022-11-15T10:41:49;99566.62;;;8.02;71.46
63306;BME280;50735;52.060;1.248;2022-11-15T10:44:20;99557.29;;;7.64;71.48
63306;BME280;50735;52.060;1.248;2022-11-15T10:47:06;99548.18;;;7.98;70.79
63306;BME280;50735;52.060;1.248;2022-11-15T10:49:54;99542.40;;;7.51;72.02
63306;BME280;50735;52.060;1.248;2022-11-15T10:52:21;99540.91;;;7.58;72.21
63306;BME280;50735;52.060;1.248;2022-11-15T10:54:50;99543.48;;;7.50;72.42
63306;BME280;50735;52.060;1.248;2022-11-15T10:57:20;99532.77;;;7.51;71.86
63306;BME280;50735;52.060;1.248;2022-11-15T10:59:50;99532.47;;;7.70;72.46
63306;BME280;50735;52.060;1.248;2022-11-15T11:02:28;99522.35;;;7.61;72.46
63306;BME280;50735;52.060;1.248;2022-11-15T11:04:56;99509.86;;;7.58;72.42
63306;BME280;50735;52.060;1.248;2022-11-15T11:07:24;99499.57;;;7.66;71.61
63306;BME280;50735;52.060;1.248;2022-11-15T11:09:58;99516.56;;;7.52;71.56
63306;BME280;50735;52.060;1.248;2022-11-15T11:12:29;99487.99;;;7.47;72.51
63306;BME280;50735;52.060;1.248;2022-11-15T11:14:58;99484.64;;;7.21;72.62
63306;BME280;50735;52.060;1.248;2022-11-15T11:17:32;99474.39;;;7.38;72.86
63306;BME280;50735;52.060;1.248;2022-11-15T11:20:07;99471.67;;;7.47;72.69
63306;BME280;50735;52.060;1.248;2022-11-15T11:22:41;99462.49;;;7.69;72.44
63306;BME280;50735;52.060;1.248;2022-11-15T11:25:22;99456.13;;;7.78;72.78
63306;BME280;50735;52.060;1.248;2022-11-15T11:28:01;99451.52;;;7.63;72.73
63306;BME280;50735;52.060;1.248;2022-11-15T11:30:41;99434.64;;;7.67;72.65
63306;BME280;50735;52.060;1.248;2022-11-15T11:33:15;99432.32;;;7.69;72.49
63306;BME280;50735;52.060;1.248;2022-11-15T11:35:50;99425.93;;;7.82;72.82
63306;BME280;50735;52.060;1.248;2022-11-15T11:38:44;99428.50;;;7.59;73.78
63306;BME280;50735;52.060;1.248;2022-11-15T11:41:23;99434.43;;;7.58;73.85
63306;BME280;50735;52.060;1.248;2022-11-15T11:44:03;99431.89;;;7.48;74.83
63306;BME280;50735;52.060;1.248;2022-11-15T11:46:47;99434.30;;;7.69;73.84
63306;BME280;50735;52.060;1.248;2022-11-15T11:49:19;99439.30;;;7.48;74.56
63306;BME280;50735;52.060;1.248;2022-11-15T11:51:52;99416.72;;;7.53;74.79
63306;BME280;50735;52.060;1.248;2022-11-15T11:54:24;99410.76;;;7.77;74.06
63306;BME280;50735;52.060;1.248;2022-11-15T11:56:54;99409.80;;;7.87;74.13
63306;BME280;50735;52.060;1.248;2022-11-15T11:59:25;99402.18;;;7.65;74.02
63306;BME280;50735;52.060;1.248;2022-11-15T12:01:55;99395.21;;;7.82;73.65
63306;BME280;50735;52.060;1.248;2022-11-15T12:04:27;99392.29;;;7.70;73.86
63306;BME280;50735;52.060;1.248;2022-11-15T12:06:59;99388.14;;;7.75;73.65
63306;BME280;50735;52.060;1.248;2022-11-15T12:09:30;99378.96;;;7.72;73.74
63306;BME280;50735;52.060;1.248;2022-11-15T12:12:06;99378.54;;;7.65;74.15
63306;BME280;50735;52.060;1.248;2022-11-15T12:14:44;99367.55;;;7.78;73.82
63306;BME280;50735;52.060;1.248;2022-11-15T12:17:12;99373.78;;;7.62;74.78
63306;BME280;50735;52.060;1.248;2022-11-15T12:19:39;99364.39;;;7.73;74.30
63306;BME280;50735;52.060;1.248;2022-11-15T12:22:12;99370.59;;;7.74;74.18
63306;BME280;50735;52.060;1.248;2022-11-15T12:24:43;99347.51;;;7.86;73.89
63306;BME280;50735;52.060;1.248;2022-11-15T12:27:17;99357.80;;;7.55;74.69
63306;BME280;50735;52.060;1.248;2022-11-15T12:29:47;99355.16;;;7.49;74.80
63306;BME280;50735;52.060;1.248;2022-11-15T12:32:27;99335.91;;;7.59;74.52
63306;BME280;50735;52.060;1.248;2022-11-15T12:34:55;99341.71;;;7.69;74.03
63306;BME280;50735;52.060;1.248;2022-11-15T12:37:48;99324.59;;;7.65;74.44
63306;BME280;50735;52.060;1.248;2022-11-15T12:40:20;99319.02;;;7.75;74.06
63306;BME280;50735;52.060;1.248;2022-11-15T12:46:04;99319.26;;;7.36;75.18
63306;BME280;50735;52.060;1.248;2022-11-15T12:49:09;99303.52;;;7.40;74.99
63306;BME280;50735;52.060;1.248;2022-11-15T12:52:08;99291.59;;;7.64;74.68
63306;BME280;50735;52.060;1.248;2022-11-15T12:55:40;99293.88;;;7.57;74.82
63306;BME280;50735;52.060;1.248;2022-11-15T12:58:42;99284.96;;;7.64;74.90
63306;BME280;50735;52.060;1.248;2022-11-15T13:01:10;99278.79;;;7.71;74.86
63306;BME280;50735;52.060;1.248;2022-11-15T13:04:08;99275.39;;;7.65;74.78
63306;BME280;50735;52.060;1.248;2022-11-15T13:06:39;99266.44;;;7.76;75.05
63306;BME280;50735;52.060;1.248;2022-11-15T13:09:54;99266.93;;;7.74;75.12
63306;BME280;50735;52.060;1.248;2022-11-15T13:12:55;99263.92;;;7.90;74.80
63306;BME280;50735;52.060;1.248;2022-11-15T13:16:27;99237.76;;;8.03;74.46
63306;BME280;50735;52.060;1.248;2022-11-15T13:18:55;99240.65;;;8.09;74.43
63306;BME280;50735;52.060;1.248;2022-11-15T13:21:24;99245.13;;;7.88;75.24
63306;BME280;50735;52.060;1.248;2022-11-15T13:23:53;99225.74;;;7.70;75.15
63306;BME280;50735;52.060;1.248;2022-11-15T13:26:21;99228.75;;;7.83;75.08
63306;BME280;50735;52.060;1.248;2022-11-15T13:28:49;99234.69;;;7.72;75.35
63306;BME280;50735;52.060;1.248;2022-11-15T13:31:23;99222.77;;;7.99;74.73